KTRK 250955Z AUTO 00000KT 10SM CLR M05/M07 A3015 RMK AO2